»·PEaware :: AAL234 KBOI-KPDX

AAL234 :: KBOI-KPDX

FLIGHT INFORMATION

Flight Status: Arrived
Operator:
American Airlines
More flights by this operator :: More flights under this callsign
Pilot: Peter H. (12565)
Aircraft: AIRBUS A320
(A320)
More flights by this aircraft type
Origin: KBOI Boise Air Terminal/Gowen
United States
Destination: KPDX Portland Intl
United States
More flights between these airports :: More routes between these airports
Route: +BOI3 SAILL BUEEL IMB RABBI HHOOD4
File this flight plan on PilotEdge
Remarks:
Altitude:
(Current/Filed)
30,000ft
Speed:
(Current/Filed)
450kts
Departed: 16-Mar-18 04:11 PM
Arrived: 16-Mar-18 05:19 PM
Distance/Time
Traveled:
297nm/1:08
Distance/Time
To Go:
Arrived

Flight Plot

Page will automatically refresh every two minutes.

Flight plan parsing failed; only flown route is shown


Map Options




Map Legend


Flown Route
Filed Route
Departure Airport
Arrival Airport
Navaid (VOR, NDB)
Fix

Horizontal Profiles

Position Reports

Time Latitude Longitude Heading Altitude Ground
Speed
16-Mar-18 15:19 43.567990 -116.222701 310 2851ft 0kts
16-Mar-18 15:20 43.567990 -116.222701 310 2851ft 0kts
16-Mar-18 15:21 43.567990 -116.222701 310 2851ft 0kts
16-Mar-18 15:22 43.567990 -116.222701 310 2851ft 0kts
16-Mar-18 15:29 43.567990 -116.222701 310 2851ft 0kts
16-Mar-18 15:30 43.567990 -116.222701 310 2851ft 0kts
16-Mar-18 15:31 43.567990 -116.222701 310 2851ft 0kts
16-Mar-18 15:32 43.567990 -116.222701 310 2851ft 0kts
16-Mar-18 15:33 43.567990 -116.222701 310 2851ft 0kts
16-Mar-18 15:34 43.567990 -116.222701 310 2851ft 0kts
16-Mar-18 15:35 43.567990 -116.222701 310 2851ft 0kts
16-Mar-18 15:36 43.567990 -116.222701 310 2851ft 0kts
16-Mar-18 15:37 43.567990 -116.222701 310 2851ft 0kts
16-Mar-18 15:38 43.567990 -116.222701 310 2851ft 0kts
16-Mar-18 15:39 43.567990 -116.222701 310 2851ft 0kts
16-Mar-18 15:40 43.567990 -116.222701 310 2851ft 0kts
16-Mar-18 15:41 43.567990 -116.222701 310 2851ft 0kts
16-Mar-18 15:42 43.567990 -116.222701 310 2851ft 0kts
16-Mar-18 15:43 43.567990 -116.222701 310 2851ft 0kts
16-Mar-18 15:44 43.567990 -116.222701 310 2851ft 0kts
16-Mar-18 15:45 43.567990 -116.222701 310 2851ft 0kts
16-Mar-18 15:46 43.567990 -116.222701 310 2851ft 0kts
16-Mar-18 15:47 43.567990 -116.222701 310 2851ft 0kts
16-Mar-18 15:48 43.567990 -116.222701 310 2851ft 0kts
16-Mar-18 15:49 43.567990 -116.222701 310 2851ft 0kts
16-Mar-18 15:50 43.567990 -116.222701 310 2851ft 0kts
16-Mar-18 15:51 43.567990 -116.222701 310 2851ft 0kts
16-Mar-18 15:52 43.567990 -116.222701 310 2851ft 0kts
16-Mar-18 15:53 43.567990 -116.222701 310 2851ft 0kts
16-Mar-18 15:54 43.567990 -116.222701 310 2851ft 0kts
16-Mar-18 15:55 43.567990 -116.222701 310 2851ft 0kts
16-Mar-18 15:56 43.567990 -116.222701 310 2851ft 0kts
16-Mar-18 15:57 43.567990 -116.222701 310 2851ft 0kts
16-Mar-18 15:58 43.567990 -116.222701 310 2851ft 0kts
16-Mar-18 15:59 43.567990 -116.222701 310 2851ft 0kts
16-Mar-18 16:00 43.567990 -116.222701 310 2851ft 0kts
16-Mar-18 16:01 43.567990 -116.222702 310 2851ft 0kts
16-Mar-18 16:02 43.567990 -116.222702 310 2851ft 0kts
16-Mar-18 16:03 43.567990 -116.222702 310 2851ft 0kts
16-Mar-18 16:04 43.567990 -116.222702 310 2851ft 0kts
16-Mar-18 16:05 43.567990 -116.222702 310 2851ft 0kts
16-Mar-18 16:06 43.567990 -116.222702 310 2851ft 0kts
16-Mar-18 16:07 43.567713 -116.223287 225 2851ft 5kts
16-Mar-18 16:08 43.569256 -116.229311 279 2842ft 34kts
16-Mar-18 16:09 43.570807 -116.237661 204 2827ft 9kts
16-Mar-18 16:10 43.559675 -116.205475 115 3756ft 188kts
16-Mar-18 16:11 43.533955 -116.131850 116 6935ft 253kts
16-Mar-18 16:12 43.500180 -116.039479 128 10337ft 284kts
16-Mar-18 16:13 43.418496 -116.033793 216 12070ft 371kts
16-Mar-18 16:14 43.401110 -116.164426 291 15582ft 386kts
16-Mar-18 16:15 43.447146 -116.296895 291 18470ft 387kts
16-Mar-18 16:16 43.493844 -116.431684 290 20691ft 398kts
16-Mar-18 16:17 43.537141 -116.557074 290 22550ft 406kts
16-Mar-18 16:18 43.582746 -116.689734 288 24368ft 412kts
16-Mar-18 16:19 43.631875 -116.833382 288 25902ft 424kts
16-Mar-18 16:20 43.682514 -116.982220 288 27276ft 437kts
16-Mar-18 16:21 43.733451 -117.135213 286 28525ft 447kts
16-Mar-18 16:22 43.783114 -117.292844 288 29774ft 447kts
16-Mar-18 16:23 43.830271 -117.443553 290 29861ft 414kts
16-Mar-18 16:24 43.875596 -117.588422 295 29855ft 412kts
16-Mar-18 16:25 43.927424 -117.727641 298 29854ft 415kts
16-Mar-18 16:26 43.981569 -117.871757 299 29806ft 427kts
16-Mar-18 16:27 44.035555 -118.016251 299 29896ft 433kts
16-Mar-18 16:28 44.090107 -118.163035 299 29904ft 434kts
16-Mar-18 16:29 44.134138 -118.282064 299 29871ft 434kts
16-Mar-18 16:30 44.198166 -118.456012 299 29781ft 443kts
16-Mar-18 16:31 44.244143 -118.581667 299 29876ft 438kts
16-Mar-18 16:32 44.295801 -118.723520 299 29859ft 434kts
16-Mar-18 16:33 44.349587 -118.871954 299 29808ft 433kts
16-Mar-18 16:34 44.403041 -119.020273 299 29793ft 432kts
16-Mar-18 16:35 44.456341 -119.168969 299 29803ft 433kts
16-Mar-18 16:36 44.471978 -119.212752 299 29809ft 433kts
16-Mar-18 16:37 44.499811 -119.290856 299 29814ft 434kts
16-Mar-18 16:38 44.553597 -119.442371 299 29781ft 443kts
16-Mar-18 16:39 44.606744 -119.593044 299 29877ft 438kts
16-Mar-18 16:40 44.662184 -119.739434 306 29852ft 435kts
16-Mar-18 16:41 44.730609 -119.877516 306 29820ft 433kts
16-Mar-18 16:42 44.768442 -119.954203 306 29813ft 433kts
16-Mar-18 16:43 44.836426 -120.092499 306 29812ft 433kts
16-Mar-18 16:44 44.904267 -120.231149 305 29787ft 437kts
16-Mar-18 16:45 44.972866 -120.372035 306 29701ft 435kts
16-Mar-18 16:46 45.038537 -120.507675 304 27623ft 417kts
16-Mar-18 16:47 45.101807 -120.638812 302 25297ft 406kts
16-Mar-18 16:48 45.159908 -120.759813 300 23400ft 392kts
16-Mar-18 16:49 45.219203 -120.883826 301 21430ft 380kts
16-Mar-18 16:50 45.276556 -121.004298 303 19466ft 372kts
16-Mar-18 16:51 45.317984 -121.091689 304 18037ft 367kts
16-Mar-18 16:52 45.339084 -121.136311 304 17323ft 363kts
16-Mar-18 16:53 45.392922 -121.250429 304 15389ft 355kts
16-Mar-18 16:54 45.445769 -121.362898 304 13498ft 343kts
16-Mar-18 16:55 45.483229 -121.479893 286 12156ft 324kts
16-Mar-18 16:56 45.506850 -121.600054 286 10776ft 317kts
16-Mar-18 16:57 45.528212 -121.710219 282 10010ft 291kts
16-Mar-18 16:58 45.533245 -121.822251 273 9765ft 287kts
16-Mar-18 16:59 45.537118 -121.932317 273 9608ft 283kts
16-Mar-18 17:00 45.554570 -122.037169 286 9455ft 281kts
16-Mar-18 17:01 45.576617 -122.141596 287 9300ft 281kts
16-Mar-18 17:02 45.598517 -122.245753 287 9147ft 281kts
16-Mar-18 17:03 45.619497 -122.348048 287 8116ft 273kts
16-Mar-18 17:04 45.639997 -122.448196 287 7059ft 258kts
16-Mar-18 17:05 45.668916 -122.535247 297 5931ft 252kts
16-Mar-18 17:06 45.698223 -122.616899 297 5357ft 229kts
16-Mar-18 17:07 45.725630 -122.692549 297 5012ft 228kts
16-Mar-18 17:08 45.753815 -122.770580 297 5011ft 226kts
16-Mar-18 17:09 45.780813 -122.849985 294 5010ft 222kts
16-Mar-18 17:10 45.781138 -122.929873 215 5019ft 226kts
16-Mar-18 17:11 45.730182 -122.905263 135 4845ft 209kts
16-Mar-18 17:12 45.695506 -122.852653 122 4027ft 162kts
16-Mar-18 17:13 45.675049 -122.800644 117 3210ft 160kts
16-Mar-18 17:14 45.655663 -122.751333 119 2434ft 137kts
16-Mar-18 17:15 45.637414 -122.704899 119 1745ft 137kts
16-Mar-18 17:16 45.619424 -122.658434 118 1006ft 136kts
16-Mar-18 17:17 45.601640 -122.612838 120 364ft 131kts
16-Mar-18 17:18 45.587535 -122.577295 115 26ft 29kts
16-Mar-18 17:19 45.586341 -122.576274 200 26ft 0kts
16-Mar-18 17:20 45.586340 -122.576275 200 26ft 0kts

Navigation Log

Ident Type
Flight plan parsing failed, navigation log unavailable